createdAt,value
2019-02-26T00:00:33.445Z,66.04
2019-02-26T00:01:28.712Z,66.30
2019-02-26T00:02:06.249Z,66.27
2019-02-26T00:03:04.642Z,65.77
2019-02-26T00:03:45.191Z,65.36
2019-02-26T00:04:25.483Z,64.85
2019-02-26T00:05:08.279Z,64.43
2019-02-26T00:05:56.839Z,64.18
2019-02-26T00:06:47.200Z,63.80
2019-02-26T00:07:28.143Z,63.59
2019-02-26T00:08:06.192Z,63.08
2019-02-26T00:08:49.262Z,62.81
2019-02-26T00:09:28.370Z,62.46
2019-02-26T00:11:03.815Z,61.57
2019-02-26T00:11:44.866Z,61.00
2019-02-26T00:12:44.931Z,60.57
2019-02-26T00:13:27.181Z,60.13
2019-02-26T00:14:04.589Z,59.32
2019-02-26T00:14:50.098Z,59.32
2019-02-26T00:15:35.532Z,59.86
2019-02-26T00:16:15.336Z,59.98
2019-02-26T00:16:51.610Z,60.13
2019-02-26T00:17:38.593Z,60.29
2019-02-26T00:18:16.808Z,60.52
2019-02-26T00:19:57.790Z,60.90
2019-02-26T00:20:37.400Z,60.90
2019-02-26T00:21:26.425Z,60.60
2019-02-26T00:22:03.047Z,60.58
2019-02-26T00:22:49.386Z,60.67
2019-02-26T00:23:31.658Z,60.87
2019-02-26T00:24:30.854Z,60.87
2019-02-26T00:25:10.451Z,60.77
2019-02-26T00:25:50.481Z,60.83
2019-02-26T00:26:47.639Z,60.81
2019-02-26T00:27:30.610Z,60.79
2019-02-26T00:28:15.387Z,60.51
2019-02-26T00:30:01.442Z,60.86
2019-02-26T00:30:38.694Z,60.81
2019-02-26T00:31:23.821Z,60.67
2019-02-26T00:32:02.729Z,60.94
2019-02-26T00:32:48.800Z,60.94
2019-02-26T00:33:28.980Z,60.61
2019-02-26T00:34:14.009Z,60.20
2019-02-26T00:35:01.775Z,60.20
2019-02-26T00:35:48.133Z,60.63
2019-02-26T00:36:27.191Z,60.25
2019-02-26T00:37:09.794Z,60.08
2019-02-26T00:37:53.464Z,59.89
2019-02-26T00:38:33.015Z,59.89
2019-02-26T00:39:16.056Z,59.98
2019-02-26T00:40:04.135Z,59.92
2019-02-26T00:40:43.217Z,59.71
2019-02-26T00:41:31.865Z,59.50
2019-02-26T00:42:12.364Z,59.31
2019-02-26T00:43:02.551Z,58.86
2019-02-26T00:43:53.166Z,58.79
2019-02-26T00:44:37.398Z,58.88
2019-02-26T00:45:26.938Z,58.61
2019-02-26T00:46:32.433Z,58.60
2019-02-26T00:47:15.546Z,58.44
2019-02-26T00:47:54.779Z,58.44
2019-02-26T00:48:38.853Z,58.59
2019-02-26T00:49:15.319Z,58.59
2019-02-26T00:49:59.320Z,58.00
2019-02-26T00:50:37.288Z,58.08
2019-02-26T00:51:27.706Z,58.20
2019-02-26T00:52:06.393Z,58.05
2019-02-26T00:52:46.820Z,57.85
2019-02-26T00:53:25.853Z,57.75
2019-02-26T00:54:07.336Z,57.65
2019-02-26T00:54:47.149Z,57.33
2019-02-26T00:55:48.641Z,57.64
2019-02-26T00:57:06.445Z,57.47
2019-02-26T00:57:51.852Z,56.28
2019-02-26T00:58:32.108Z,56.28
2019-02-26T00:59:11.055Z,56.86
2019-02-26T00:59:48.266Z,56.35
2019-02-26T01:00:28.516Z,56.35
2019-02-26T01:01:12.146Z,56.09
2019-02-26T01:01:59.413Z,56.09
2019-02-26T01:02:58.079Z,56.18
2019-02-26T01:03:58.405Z,56.18
2019-02-26T01:04:39.089Z,56.12
2019-02-26T01:05:18.539Z,56.73
2019-02-26T01:06:01.615Z,56.73
2019-02-26T01:06:43.701Z,56.73
2019-02-26T01:07:36.530Z,55.38
2019-02-26T01:08:19.621Z,55.38
2019-02-26T01:09:03.658Z,55.52
2019-02-26T01:10:14.001Z,55.17
2019-02-26T01:10:56.965Z,55.17
2019-02-26T01:11:34.061Z,55.47
2019-02-26T01:12:18.221Z,55.27
2019-02-26T01:13:03.029Z,55.11
2019-02-26T01:13:40.871Z,55.11
2019-02-26T01:14:18.654Z,54.92
2019-02-26T01:16:18.425Z,54.60
2019-02-26T01:18:08.346Z,54.59
2019-02-26T01:18:46.676Z,54.62
2019-02-26T01:19:34.169Z,54.49
2019-02-26T01:20:14.359Z,54.37
2019-02-26T01:20:52.673Z,54.22
2019-02-26T01:21:34.102Z,54.02
2019-02-26T01:22:14.361Z,53.99
2019-02-26T01:22:53.185Z,53.79
2019-02-26T01:23:43.796Z,53.82
2019-02-26T01:24:27.975Z,53.94
2019-02-26T01:25:07.877Z,53.86
2019-02-26T01:25:59.849Z,53.72
2019-02-26T01:26:43.499Z,53.73
2019-02-26T01:27:22.400Z,53.70
2019-02-26T01:28:00.620Z,53.57
2019-02-26T01:28:46.177Z,53.50
2019-02-26T01:29:33.016Z,53.43
2019-02-26T01:30:18.140Z,53.45
2019-02-26T01:30:56.159Z,53.34
2019-02-26T01:31:33.955Z,53.36
2019-02-26T01:32:26.468Z,53.30
2019-02-26T01:33:08.042Z,53.15
2019-02-26T01:33:55.326Z,52.99
2019-02-26T01:34:33.169Z,52.89
2019-02-26T01:35:13.072Z,52.73
2019-02-26T01:35:56.168Z,52.60
2019-02-26T01:37:05.950Z,52.79
2019-02-26T01:37:51.318Z,52.64
2019-02-26T01:38:29.108Z,52.39
2019-02-26T01:39:13.431Z,52.01
2019-02-26T01:39:53.925Z,51.77
2019-02-26T01:40:57.819Z,51.50
2019-02-26T01:41:46.079Z,51.38
2019-02-26T01:42:34.823Z,51.43
2019-02-26T01:43:18.640Z,51.54
2019-02-26T01:45:05.616Z,51.20
2019-02-26T01:45:56.787Z,50.81
2019-02-26T01:46:43.785Z,50.77
2019-02-26T01:47:54.464Z,51.21
2019-02-26T01:48:57.449Z,50.96
2019-02-26T01:49:53.387Z,50.76
2019-02-26T01:50:33.475Z,50.59
2019-02-26T01:51:52.242Z,50.27
2019-02-26T01:54:51.370Z,49.76
2019-02-26T01:55:42.099Z,49.89
2019-02-26T01:56:42.449Z,49.79
2019-02-26T01:57:27.184Z,49.84
2019-02-26T01:58:09.855Z,49.96
2019-02-26T01:59:09.190Z,49.80
2019-02-26T01:59:53.205Z,49.73
2019-02-26T02:00:38.684Z,49.60
2019-02-26T02:01:21.391Z,49.43
2019-02-26T02:03:02.327Z,49.16
2019-02-26T02:04:44.628Z,49.05
2019-02-26T02:05:33.826Z,48.74
2019-02-26T02:07:04.236Z,48.63
2019-02-26T02:08:18.487Z,48.66
2019-02-26T02:10:07.347Z,48.65
2019-02-26T02:10:56.294Z,48.40
2019-02-26T02:11:43.149Z,48.39
2019-02-26T02:13:02.877Z,48.39
2019-02-26T02:13:41.374Z,48.54
2019-02-26T02:15:20.827Z,48.11
2019-02-26T02:16:04.907Z,48.05
2019-02-26T02:16:55.928Z,47.92
2019-02-26T02:17:43.568Z,47.78
2019-02-26T02:18:23.606Z,47.75
2019-02-26T02:19:02.974Z,47.76
2019-02-26T02:19:41.720Z,47.90
2019-02-26T02:20:30.157Z,47.88
2019-02-26T02:21:33.189Z,47.69
2019-02-26T02:22:19.145Z,47.40
2019-02-26T02:22:58.164Z,47.50
2019-02-26T02:23:44.254Z,47.43
2019-02-26T02:24:31.433Z,47.41
2019-02-26T02:25:24.682Z,47.32
2019-02-26T02:26:04.462Z,47.25
2019-02-26T02:27:22.582Z,47.29
2019-02-26T02:28:26.313Z,47.55
2019-02-26T02:29:34.254Z,47.34
2019-02-26T02:30:22.386Z,47.13
2019-02-26T02:30:58.367Z,47.46
2019-02-26T02:31:58.491Z,47.41
2019-02-26T02:32:40.159Z,46.82
2019-02-26T02:33:29.356Z,46.70
2019-02-26T02:34:12.159Z,46.75
2019-02-26T02:34:53.248Z,46.68
2019-02-26T02:37:27.467Z,46.80
2019-02-26T02:38:04.987Z,46.64
2019-02-26T02:38:41.294Z,46.59
2019-02-26T02:39:26.423Z,46.56
2019-02-26T02:40:01.808Z,46.37
2019-02-26T02:40:40.278Z,46.13
2019-02-26T02:41:17.646Z,46.02
2019-02-26T02:41:56.267Z,46.36
2019-02-26T02:42:37.523Z,46.39
2019-02-26T02:43:18.069Z,46.40
2019-02-26T02:43:55.683Z,46.08
2019-02-26T02:44:32.103Z,45.86
2019-02-26T02:45:20.111Z,45.91
2019-02-26T02:45:55.744Z,45.88
2019-02-26T02:46:34.131Z,45.80
2019-02-26T02:47:11.331Z,45.64
2019-02-26T02:47:54.748Z,45.65
2019-02-26T02:48:28.856Z,45.57
2019-02-26T02:49:09.824Z,45.51
2019-02-26T02:49:50.372Z,45.50
2019-02-26T02:50:47.057Z,45.26
2019-02-26T02:51:25.757Z,45.23
2019-02-26T02:52:04.148Z,45.26
2019-02-26T02:52:41.504Z,45.16
2019-02-26T02:53:21.044Z,45.07
2019-02-26T02:54:01.035Z,45.00
2019-02-26T02:54:38.597Z,45.20
2019-02-26T02:55:19.314Z,45.08
2019-02-26T02:55:55.958Z,44.88
2019-02-26T02:56:34.068Z,44.84
2019-02-26T02:57:11.947Z,44.88
2019-02-26T02:57:50.205Z,44.80
2019-02-26T02:58:26.177Z,44.70
2019-02-26T02:59:03.458Z,44.58
2019-02-26T02:59:42.264Z,44.30
2019-02-26T03:00:39.258Z,44.05
2019-02-26T03:01:19.566Z,43.93
2019-02-26T03:01:57.107Z,44.38
2019-02-26T03:02:37.677Z,44.34
2019-02-26T03:03:11.958Z,44.27
2019-02-26T03:03:50.301Z,44.17
2019-02-26T03:04:31.185Z,44.14
2019-02-26T03:05:06.838Z,43.79
2019-02-26T03:05:47.410Z,43.55
2019-02-26T03:06:25.010Z,43.37
2019-02-26T03:07:03.106Z,43.38
2019-02-26T03:07:42.065Z,43.45
2019-02-26T03:08:19.481Z,43.55
2019-02-26T03:08:56.473Z,43.58
2019-02-26T03:09:35.374Z,43.38
2019-02-26T03:10:13.005Z,42.72
2019-02-26T03:10:49.246Z,42.51
2019-02-26T03:11:25.941Z,42.66
2019-02-26T03:12:05.564Z,42.76
2019-02-26T03:12:44.023Z,42.68
2019-02-26T03:13:22.899Z,42.70
2019-02-26T03:13:59.947Z,42.77
2019-02-26T03:14:39.182Z,42.65
2019-02-26T03:15:17.713Z,42.66
2019-02-26T03:15:56.647Z,42.76
2019-02-26T03:16:33.503Z,42.65
2019-02-26T03:17:11.074Z,42.63
2019-02-26T03:17:47.878Z,42.50
2019-02-26T03:18:25.832Z,42.43
2019-02-26T03:19:04.771Z,42.37
2019-02-26T03:19:45.299Z,42.37
2019-02-26T03:20:24.720Z,42.43
2019-02-26T03:21:04.352Z,42.46
2019-02-26T03:21:42.142Z,42.38
2019-02-26T03:22:21.609Z,42.26
2019-02-26T03:22:57.362Z,42.42
2019-02-26T03:23:37.101Z,42.36
2019-02-26T03:24:13.165Z,42.35
2019-02-26T03:24:51.277Z,42.65
2019-02-26T03:25:30.240Z,42.73
2019-02-26T03:26:09.964Z,42.75
2019-02-26T03:26:45.121Z,42.60
2019-02-26T03:27:27.793Z,42.33
2019-02-26T03:28:04.065Z,42.03
2019-02-26T03:28:42.185Z,42.37
2019-02-26T03:29:18.603Z,42.47
2019-02-26T03:29:56.273Z,42.76
2019-02-26T03:30:40.206Z,42.65
2019-02-26T03:31:17.051Z,42.62
2019-02-26T03:31:55.458Z,42.54
2019-02-26T03:32:36.070Z,42.41
2019-02-26T03:33:11.185Z,42.32
2019-02-26T03:33:47.425Z,42.13
2019-02-26T03:34:25.262Z,42.08
2019-02-26T03:35:07.146Z,41.99
2019-02-26T03:35:41.432Z,41.98
2019-02-26T03:36:19.225Z,41.89
2019-02-26T03:36:57.816Z,41.76
2019-02-26T03:37:36.581Z,41.70
2019-02-26T03:38:15.001Z,41.65
2019-02-26T03:38:54.813Z,41.74
2019-02-26T03:39:39.617Z,41.78
2019-02-26T03:40:16.447Z,41.95
2019-02-26T03:40:55.498Z,41.90
2019-02-26T03:41:31.897Z,41.76
2019-02-26T03:42:10.472Z,41.19
2019-02-26T03:42:47.639Z,41.14
2019-02-26T03:43:25.383Z,41.05
2019-02-26T03:44:08.217Z,41.12
2019-02-26T03:44:46.181Z,41.00
2019-02-26T03:45:29.849Z,40.61
2019-02-26T03:46:09.747Z,40.55
2019-02-26T03:46:47.794Z,40.75
2019-02-26T03:47:24.284Z,40.90
2019-02-26T03:48:01.475Z,40.77
2019-02-26T03:48:38.008Z,40.58
2019-02-26T03:49:16.967Z,40.52
2019-02-26T03:49:55.252Z,40.53
2019-02-26T03:50:31.499Z,40.42
2019-02-26T03:51:08.352Z,40.47
2019-02-26T03:51:45.413Z,40.32
2019-02-26T03:52:21.812Z,40.18
2019-02-26T03:52:59.001Z,40.03
2019-02-26T03:53:48.693Z,39.90
2019-02-26T03:54:25.597Z,39.91
2019-02-26T03:55:03.540Z,39.81
2019-02-26T03:55:42.028Z,39.77
2019-02-26T03:56:20.565Z,39.75
2019-02-26T03:56:57.421Z,39.75
2019-02-26T03:57:33.840Z,39.79
2019-02-26T03:58:10.179Z,39.68
2019-02-26T03:58:46.832Z,39.54
2019-02-26T03:59:24.508Z,39.55
2019-02-26T04:00:05.599Z,39.89
2019-02-26T04:00:41.704Z,39.89
2019-02-26T04:01:19.411Z,39.90
2019-02-26T04:01:57.098Z,39.88
2019-02-26T04:02:33.220Z,39.69
2019-02-26T04:03:12.477Z,39.67
2019-02-26T04:03:50.870Z,39.52
2019-02-26T04:04:28.884Z,39.47
2019-02-26T04:05:08.955Z,39.36
2019-02-26T04:05:45.963Z,39.32
2019-02-26T04:06:23.159Z,39.19
2019-02-26T04:07:01.425Z,39.04
2019-02-26T04:07:38.988Z,39.00
2019-02-26T04:08:16.678Z,39.09
2019-02-26T04:08:57.465Z,39.02
2019-02-26T04:09:39.063Z,38.99
2019-02-26T04:10:14.688Z,39.01
2019-02-26T04:10:53.626Z,39.06
2019-02-26T04:11:29.751Z,39.28
2019-02-26T04:12:08.392Z,39.41
2019-02-26T04:12:48.614Z,39.41
2019-02-26T04:13:25.986Z,39.39
2019-02-26T04:14:03.931Z,39.35
2019-02-26T04:14:40.767Z,39.26
2019-02-26T04:15:18.197Z,39.42
2019-02-26T04:15:57.102Z,39.54
2019-02-26T04:16:35.279Z,39.51
2019-02-26T04:17:11.280Z,39.60
2019-02-26T04:17:49.881Z,39.54
2019-02-26T04:18:28.774Z,39.41
2019-02-26T04:19:08.614Z,39.39
2019-02-26T04:19:44.488Z,39.31
2019-02-26T04:20:21.074Z,39.24
2019-02-26T04:21:03.164Z,39.52
2019-02-26T04:22:12.483Z,39.62
2019-02-26T04:22:49.923Z,39.79
2019-02-26T04:23:25.182Z,40.32
2019-02-26T04:24:03.522Z,40.21
2019-02-26T04:24:40.361Z,40.08
2019-02-26T04:25:59.875Z,39.92
2019-02-26T04:27:10.992Z,39.84
2019-02-26T04:27:59.920Z,39.76
2019-02-26T04:28:47.577Z,39.10
2019-02-26T04:29:49.355Z,39.21
2019-02-26T04:31:05.420Z,39.24
2019-02-26T04:32:20.372Z,38.99
2019-02-26T04:33:32.718Z,38.76
2019-02-26T04:34:26.206Z,38.82
2019-02-26T04:35:47.686Z,39.22
2019-02-26T04:36:34.356Z,39.08
2019-02-26T04:38:03.461Z,38.84
2019-02-26T04:39:34.490Z,39.29
2019-02-26T04:40:47.134Z,39.97
2019-02-26T04:41:48.710Z,39.68
2019-02-26T04:42:53.663Z,39.53
2019-02-26T04:44:26.240Z,39.18
2019-02-26T04:45:48.236Z,39.27
2019-02-26T04:46:42.927Z,39.22
2019-02-26T04:47:27.029Z,39.16
2019-02-26T04:48:03.616Z,39.18
2019-02-26T04:48:41.468Z,39.20
2019-02-26T04:49:17.760Z,39.27
2019-02-26T04:49:57.293Z,39.27
2019-02-26T04:50:35.769Z,38.94
2019-02-26T04:51:12.905Z,38.68
2019-02-26T04:51:50.585Z,38.57
2019-02-26T04:52:29.626Z,38.45
2019-02-26T04:53:28.724Z,38.62
2019-02-26T04:54:05.513Z,38.71
2019-02-26T04:54:42.615Z,38.76
2019-02-26T04:55:20.756Z,38.74
2019-02-26T04:55:59.844Z,38.57
2019-02-26T04:56:39.567Z,38.25
2019-02-26T04:57:14.719Z,38.04
2019-02-26T04:57:53.961Z,37.74
2019-02-26T04:58:31.178Z,37.59
2019-02-26T04:59:09.781Z,37.40
2019-02-26T04:59:45.516Z,37.33
2019-02-26T05:00:26.173Z,37.25
2019-02-26T05:01:04.237Z,37.18
2019-02-26T05:01:40.893Z,36.88
2019-02-26T05:02:20.549Z,36.79
2019-02-26T05:02:56.798Z,37.17
2019-02-26T05:03:33.654Z,37.29
2019-02-26T05:04:10.031Z,37.41
2019-02-26T05:04:46.489Z,37.57
2019-02-26T05:05:25.862Z,37.52
2019-02-26T05:06:05.310Z,37.39
2019-02-26T05:06:42.776Z,37.23
2019-02-26T05:07:19.637Z,37.23
2019-02-26T05:07:59.001Z,37.20
2019-02-26T05:08:37.598Z,37.33
2019-02-26T05:09:15.656Z,37.67
2019-02-26T05:09:53.854Z,37.41
2019-02-26T05:10:34.398Z,36.87
2019-02-26T05:11:14.884Z,37.01
2019-02-26T05:11:57.139Z,37.22
2019-02-26T05:12:37.296Z,37.82
2019-02-26T05:13:15.202Z,37.21
2019-02-26T05:13:54.183Z,36.70
2019-02-26T05:14:33.287Z,36.97
2019-02-26T05:15:18.059Z,37.04
2019-02-26T05:15:52.857Z,37.80
2019-02-26T05:16:32.694Z,37.75
2019-02-26T05:17:10.859Z,38.32
2019-02-26T05:17:49.787Z,38.42
2019-02-26T05:18:28.532Z,38.14
2019-02-26T05:19:05.230Z,38.01
2019-02-26T05:19:48.260Z,37.83
2019-02-26T05:20:23.407Z,37.76
2019-02-26T05:21:04.169Z,37.62
2019-02-26T05:21:38.478Z,37.46
2019-02-26T05:22:15.287Z,37.47
2019-02-26T05:22:54.758Z,37.53
2019-02-26T05:23:34.440Z,37.58
2019-02-26T05:24:13.071Z,37.36
2019-02-26T05:24:52.802Z,37.38
2019-02-26T05:25:31.487Z,37.24
2019-02-26T05:26:11.667Z,36.99
2019-02-26T05:26:46.751Z,36.77
2019-02-26T05:27:24.959Z,36.72
2019-02-26T05:28:03.670Z,36.72
2019-02-26T05:28:47.018Z,37.02
2019-02-26T05:29:22.922Z,37.14
2019-02-26T05:30:00.031Z,37.13
2019-02-26T05:30:37.789Z,37.21
2019-02-26T05:31:18.114Z,37.21
2019-02-26T05:31:55.613Z,37.13
2019-02-26T05:32:35.032Z,37.08
2019-02-26T05:33:14.113Z,36.83
2019-02-26T05:33:54.202Z,36.70
2019-02-26T05:34:32.162Z,36.50
2019-02-26T05:35:08.929Z,36.74
2019-02-26T05:35:46.244Z,36.91
2019-02-26T05:36:28.228Z,36.99
2019-02-26T05:37:08.181Z,37.13
2019-02-26T05:37:47.516Z,36.69
2019-02-26T05:38:49.297Z,36.71
2019-02-26T05:39:28.822Z,36.64
2019-02-26T05:40:09.057Z,36.48
2019-02-26T05:40:48.194Z,36.44
2019-02-26T05:41:25.689Z,36.42
2019-02-26T05:42:04.069Z,36.59
2019-02-26T05:42:40.974Z,36.62
2019-02-26T05:43:20.403Z,36.53
2019-02-26T05:44:03.495Z,36.89
2019-02-26T05:44:39.705Z,36.85
2019-02-26T05:45:16.646Z,36.86
2019-02-26T05:45:54.861Z,36.91
2019-02-26T05:46:34.094Z,36.97
2019-02-26T05:47:13.004Z,37.16
2019-02-26T05:47:51.258Z,37.15
2019-02-26T05:48:31.444Z,37.19
2019-02-26T05:49:13.239Z,36.93
2019-02-26T05:49:48.104Z,36.77
2019-02-26T05:50:24.870Z,36.71
2019-02-26T05:51:03.592Z,36.55
2019-02-26T05:51:39.510Z,36.27
2019-02-26T05:52:35.866Z,36.23
2019-02-26T05:53:18.479Z,36.29
2019-02-26T05:53:56.061Z,36.66
2019-02-26T05:54:32.283Z,36.45
2019-02-26T05:55:08.747Z,36.26
2019-02-26T05:55:48.539Z,36.03
2019-02-26T05:56:27.430Z,36.01
2019-02-26T05:57:06.570Z,35.98
2019-02-26T05:57:43.682Z,35.85
2019-02-26T05:58:21.503Z,35.50
2019-02-26T05:59:02.090Z,35.65
2019-02-26T05:59:35.881Z,35.12
2019-02-26T06:00:18.306Z,34.93
2019-02-26T06:00:55.063Z,34.71
2019-02-26T06:01:31.808Z,34.69
2019-02-26T06:02:21.641Z,34.79
2019-02-26T06:02:59.233Z,34.83
2019-02-26T06:03:38.499Z,35.12
2019-02-26T06:04:23.386Z,35.41
2019-02-26T06:04:59.951Z,35.54
2019-02-26T06:05:41.184Z,35.88
2019-02-26T06:06:15.655Z,35.85
2019-02-26T06:06:55.532Z,35.85
2019-02-26T06:07:33.365Z,35.72
2019-02-26T06:08:11.676Z,35.62
2019-02-26T06:08:49.395Z,35.49
2019-02-26T06:09:28.546Z,34.87
2019-02-26T06:10:07.074Z,34.52
2019-02-26T06:10:55.813Z,34.41
2019-02-26T06:11:36.329Z,34.67
2019-02-26T06:12:12.755Z,35.44
2019-02-26T06:12:49.156Z,35.73
2019-02-26T06:13:29.167Z,35.22
2019-02-26T06:14:20.156Z,35.29
2019-02-26T06:15:02.077Z,34.96
2019-02-26T06:15:38.541Z,34.91
2019-02-26T06:16:14.931Z,35.28
2019-02-26T06:16:55.081Z,35.30
2019-02-26T06:17:31.327Z,35.34
2019-02-26T06:18:07.823Z,35.48
2019-02-26T06:18:46.396Z,35.75
2019-02-26T06:19:37.733Z,35.81
2019-02-26T06:20:19.230Z,35.67
2019-02-26T06:20:56.706Z,35.50
2019-02-26T06:21:34.352Z,35.26
2019-02-26T06:22:14.518Z,34.93
2019-02-26T06:22:51.695Z,34.84
2019-02-26T06:23:33.804Z,34.90
2019-02-26T06:24:10.506Z,34.88
2019-02-26T06:24:49.288Z,35.00
2019-02-26T06:25:25.795Z,34.60
2019-02-26T06:26:04.910Z,34.33
2019-02-26T06:26:45.524Z,34.30
2019-02-26T06:27:27.271Z,33.87
2019-02-26T06:28:06.945Z,33.82
2019-02-26T06:28:43.470Z,33.78
2019-02-26T06:29:22.267Z,33.67
2019-02-26T06:29:58.163Z,33.60
2019-02-26T06:30:35.197Z,33.72
2019-02-26T06:31:22.096Z,33.69
2019-02-26T06:32:09.628Z,33.51
2019-02-26T06:32:47.141Z,33.59
2019-02-26T06:33:23.626Z,33.55
2019-02-26T06:34:03.523Z,33.70
2019-02-26T06:34:38.120Z,33.89
2019-02-26T06:35:17.037Z,34.15
2019-02-26T06:35:59.015Z,34.21
2019-02-26T06:36:36.316Z,34.30
2019-02-26T06:37:23.430Z,34.28
2019-02-26T06:38:02.125Z,34.33
2019-02-26T06:38:42.847Z,34.68
2019-02-26T06:39:22.244Z,34.97
2019-02-26T06:40:02.486Z,35.14
2019-02-26T06:40:39.315Z,35.26
2019-02-26T06:41:16.366Z,35.27
2019-02-26T06:41:57.606Z,35.85
2019-02-26T06:42:37.942Z,36.32
2019-02-26T06:43:39.619Z,36.54
2019-02-26T06:44:14.194Z,36.37
2019-02-26T06:44:51.419Z,36.24
2019-02-26T06:45:27.914Z,36.18
2019-02-26T06:46:05.363Z,36.25
2019-02-26T06:46:42.439Z,36.31
2019-02-26T06:47:18.921Z,36.50
2019-02-26T06:47:56.410Z,36.53
2019-02-26T06:48:33.072Z,36.58
2019-02-26T06:49:09.214Z,36.55
2019-02-26T06:49:46.145Z,36.45
2019-02-26T06:50:23.684Z,36.42
2019-02-26T06:51:02.689Z,36.49
2019-02-26T06:51:44.984Z,36.68
2019-02-26T06:52:23.056Z,37.02
2019-02-26T06:52:59.399Z,37.08
2019-02-26T06:53:35.711Z,37.13
2019-02-26T06:54:19.631Z,37.17
2019-02-26T06:54:58.091Z,37.18
2019-02-26T06:55:41.663Z,37.06
2019-02-26T06:56:18.385Z,37.13
2019-02-26T06:56:55.476Z,37.81
2019-02-26T06:57:31.780Z,38.38
2019-02-26T06:58:31.520Z,38.69
2019-02-26T06:59:34.477Z,39.08
2019-02-26T07:00:21.248Z,39.85
2019-02-26T07:00:58.087Z,40.26
2019-02-26T07:01:39.640Z,41.44
2019-02-26T07:02:17.093Z,41.61
2019-02-26T07:03:02.645Z,42.09
2019-02-26T07:03:44.386Z,42.02
2019-02-26T07:04:29.406Z,42.32
2019-02-26T07:05:05.330Z,42.31
2019-02-26T07:06:27.719Z,42.68
2019-02-26T07:07:06.814Z,43.06
2019-02-26T07:07:45.539Z,43.25
2019-02-26T07:08:24.188Z,43.28
2019-02-26T07:09:02.279Z,43.42
2019-02-26T07:09:41.934Z,43.19
2019-02-26T07:10:26.007Z,43.58
2019-02-26T07:11:03.926Z,43.69
2019-02-26T07:11:43.048Z,44.02
2019-02-26T07:12:23.936Z,44.50
2019-02-26T07:13:08.853Z,44.59
2019-02-26T07:13:45.990Z,44.82
2019-02-26T07:14:27.202Z,45.05
2019-02-26T07:15:05.975Z,45.17
2019-02-26T07:16:05.297Z,45.36
2019-02-26T07:16:41.623Z,45.35
2019-02-26T07:17:21.096Z,45.17
2019-02-26T07:18:02.238Z,45.41
2019-02-26T07:18:41.237Z,45.49
2019-02-26T07:19:18.168Z,45.26
2019-02-26T07:19:55.923Z,45.23
2019-02-26T07:20:34.332Z,45.13
2019-02-26T07:21:13.617Z,44.84
2019-02-26T07:21:52.974Z,43.97
2019-02-26T07:22:51.609Z,43.25
2019-02-26T07:23:29.808Z,43.12
2019-02-26T07:24:07.703Z,43.09
2019-02-26T07:24:48.299Z,42.76
2019-02-26T07:25:28.233Z,42.76
2019-02-26T07:26:04.799Z,43.15
2019-02-26T07:26:46.377Z,43.07
2019-02-26T07:27:26.484Z,43.34
2019-02-26T07:28:06.750Z,43.37
2019-02-26T07:28:48.717Z,42.51
2019-02-26T07:29:39.462Z,41.88
2019-02-26T07:30:16.094Z,42.06
2019-02-26T07:30:57.042Z,42.33
2019-02-26T07:31:44.001Z,42.41
2019-02-26T07:32:28.417Z,42.77
2019-02-26T07:33:05.357Z,42.80
2019-02-26T07:33:44.942Z,42.75
2019-02-26T07:34:22.788Z,42.66
2019-02-26T07:35:24.409Z,42.68
2019-02-26T07:36:04.123Z,42.61
2019-02-26T07:36:43.267Z,42.60
2019-02-26T07:37:22.649Z,42.60
2019-02-26T07:38:01.736Z,42.45
2019-02-26T07:38:41.565Z,42.97
2019-02-26T07:39:32.358Z,44.02
2019-02-26T07:40:15.238Z,44.30
2019-02-26T07:40:51.070Z,44.94
2019-02-26T07:41:34.544Z,45.20
2019-02-26T07:42:11.504Z,45.22
2019-02-26T07:42:49.984Z,45.20
2019-02-26T07:43:28.808Z,45.47
2019-02-26T07:44:11.464Z,45.49
2019-02-26T07:44:46.554Z,45.69
2019-02-26T07:45:30.390Z,45.83
2019-02-26T07:46:12.142Z,46.20
2019-02-26T07:46:48.581Z,46.09
2019-02-26T07:47:29.394Z,46.19
2019-02-26T07:48:05.983Z,45.92
2019-02-26T07:48:42.743Z,45.67
2019-02-26T07:49:19.996Z,45.63
2019-02-26T07:49:58.891Z,45.66
2019-02-26T07:50:40.274Z,45.22
2019-02-26T07:51:20.462Z,45.12
2019-02-26T07:52:03.895Z,45.24
2019-02-26T07:52:43.758Z,45.18
2019-02-26T07:53:22.174Z,45.01
2019-02-26T07:54:00.841Z,44.89
2019-02-26T07:54:40.482Z,44.89
2019-02-26T07:55:17.445Z,44.98
2019-02-26T07:55:56.848Z,44.66
2019-02-26T07:56:34.491Z,44.23
2019-02-26T07:57:11.145Z,43.78
2019-02-26T07:57:50.703Z,43.52
2019-02-26T07:58:30.891Z,43.42
2019-02-26T07:59:09.814Z,43.36
2019-02-26T07:59:50.142Z,43.27
2019-02-26T08:00:30.550Z,42.84
2019-02-26T08:01:07.240Z,42.06
2019-02-26T08:01:45.315Z,41.71
2019-02-26T08:02:26.066Z,41.73
2019-02-26T08:03:24.803Z,41.71
2019-02-26T08:04:02.389Z,41.58
2019-02-26T08:04:39.485Z,41.76
2019-02-26T08:05:21.211Z,41.76
2019-02-26T08:05:59.300Z,41.87
2019-02-26T08:06:36.176Z,41.84
2019-02-26T08:07:13.625Z,41.85
2019-02-26T08:07:51.978Z,41.75
2019-02-26T08:08:27.928Z,41.70
2019-02-26T08:09:08.720Z,41.86
2019-02-26T08:09:43.970Z,42.02
2019-02-26T08:10:20.511Z,42.29
2019-02-26T08:11:00.578Z,42.58
2019-02-26T08:11:57.665Z,42.80
2019-02-26T08:12:35.573Z,43.01
2019-02-26T08:13:12.191Z,43.82
2019-02-26T08:13:54.222Z,43.91
2019-02-26T08:14:30.654Z,43.95
2019-02-26T08:15:10.406Z,43.83
2019-02-26T08:15:49.343Z,43.85
2019-02-26T08:16:51.407Z,43.95
2019-02-26T08:17:31.015Z,43.98
2019-02-26T08:18:07.799Z,44.08
2019-02-26T08:18:47.369Z,44.13
2019-02-26T08:19:29.563Z,44.08
2019-02-26T08:20:10.010Z,43.94
2019-02-26T08:20:45.485Z,44.03
2019-02-26T08:21:22.911Z,44.22
2019-02-26T08:22:04.226Z,44.46
2019-02-26T08:22:41.824Z,44.68
2019-02-26T08:23:21.525Z,44.76
2019-02-26T08:23:57.465Z,44.80
2019-02-26T08:24:37.074Z,44.82
2019-02-26T08:25:15.790Z,44.89
2019-02-26T08:25:52.872Z,45.01
2019-02-26T08:26:30.152Z,45.14
2019-02-26T08:27:08.460Z,45.42
2019-02-26T08:27:49.320Z,45.53
2019-02-26T08:28:25.133Z,45.61
2019-02-26T08:29:02.713Z,45.60
2019-02-26T08:29:39.671Z,45.63
2019-02-26T08:30:21.395Z,45.64
2019-02-26T08:30:59.053Z,45.65
2019-02-26T08:31:36.691Z,45.67
2019-02-26T08:32:18.094Z,45.81
2019-02-26T08:32:56.111Z,46.23
2019-02-26T08:33:32.254Z,46.48
2019-02-26T08:34:15.677Z,46.20
2019-02-26T08:34:53.975Z,45.96
2019-02-26T08:35:31.796Z,46.08
2019-02-26T08:36:09.230Z,46.14
2019-02-26T08:36:49.054Z,46.23
2019-02-26T08:37:27.077Z,46.40
2019-02-26T08:38:05.691Z,46.48
2019-02-26T08:38:42.827Z,46.61
2019-02-26T08:39:19.275Z,46.69
2019-02-26T08:39:58.253Z,47.05
2019-02-26T08:40:37.533Z,47.21
2019-02-26T08:41:13.805Z,47.13
2019-02-26T08:42:08.009Z,46.91
2019-02-26T08:42:44.513Z,46.74
2019-02-26T08:43:23.288Z,46.66
2019-02-26T08:44:01.260Z,46.65
2019-02-26T08:44:41.083Z,46.56
2019-02-26T08:45:25.120Z,46.63
2019-02-26T08:45:59.546Z,45.94
2019-02-26T08:46:42.725Z,45.71
2019-02-26T08:47:21.600Z,45.75
2019-02-26T08:48:00.181Z,46.21
2019-02-26T08:48:36.574Z,46.15
2019-02-26T08:49:13.768Z,46.04
2019-02-26T08:49:51.939Z,46.03
2019-02-26T08:50:33.047Z,46.06
2019-02-26T08:51:09.045Z,46.06
2019-02-26T08:51:45.189Z,46.62
2019-02-26T08:52:29.354Z,46.47
2019-02-26T08:53:05.910Z,46.32
2019-02-26T08:53:44.423Z,46.20
2019-02-26T08:54:26.087Z,46.17
2019-02-26T08:55:01.710Z,46.18
2019-02-26T08:55:38.458Z,46.12
2019-02-26T08:56:16.139Z,45.97
2019-02-26T08:56:55.527Z,46.25
2019-02-26T08:57:34.646Z,46.49
2019-02-26T08:58:12.551Z,46.47
2019-02-26T08:58:49.506Z,46.25
2019-02-26T08:59:25.923Z,45.84
2019-02-26T09:00:03.050Z,45.43
2019-02-26T09:00:43.059Z,45.28
2019-02-26T09:01:26.995Z,45.23
2019-02-26T09:02:07.334Z,45.30
2019-02-26T09:02:46.006Z,45.24
2019-02-26T09:03:23.052Z,45.49
2019-02-26T09:04:00.897Z,45.44
2019-02-26T09:04:38.326Z,45.38
2019-02-26T09:05:19.397Z,45.44
2019-02-26T09:06:10.871Z,45.61
2019-02-26T09:06:36.912Z,45.65
2019-02-26T09:07:16.468Z,45.96
2019-02-26T09:07:52.751Z,45.49
2019-02-26T09:08:32.670Z,45.27
2019-02-26T09:09:16.018Z,45.11
2019-02-26T09:09:54.848Z,44.77
2019-02-26T09:10:31.124Z,44.61
2019-02-26T09:11:08.636Z,44.46
2019-02-26T09:11:50.153Z,44.47
2019-02-26T09:12:27.637Z,44.53
2019-02-26T09:13:06.152Z,44.15
2019-02-26T09:13:44.018Z,43.84